sensor_id;sensor_type;location;lat;lon;timestamp;temperature;humidity
18613;DHT22;9436;52.152;21.032;2022-09-09T00:00:27;13.90;99.90
18613;DHT22;9436;52.152;21.032;2022-09-09T00:03:02;13.90;99.90
18613;DHT22;9436;52.152;21.032;2022-09-09T00:05:34;13.80;99.90
18613;DHT22;9436;52.152;21.032;2022-09-09T00:08:14;13.70;99.90
18613;DHT22;9436;52.152;21.032;2022-09-09T00:10:42;13.70;99.90
18613;DHT22;9436;52.152;21.032;2022-09-09T00:13:16;13.60;99.90
18613;DHT22;9436;52.152;21.032;2022-09-09T00:15:54;13.50;99.90
18613;DHT22;9436;52.152;21.032;2022-09-09T00:18:25;13.40;99.90
18613;DHT22;9436;52.152;21.032;2022-09-09T00:20:58;13.40;99.90
18613;DHT22;9436;52.152;21.032;2022-09-09T00:23:30;13.30;99.90
18613;DHT22;9436;52.152;21.032;2022-09-09T00:26:03;13.40;99.90
18613;DHT22;9436;52.152;21.032;2022-09-09T00:28:38;13.40;99.90
18613;DHT22;9436;52.152;21.032;2022-09-09T00:31:12;13.30;99.90
18613;DHT22;9436;52.152;21.032;2022-09-09T00:33:40;13.30;99.90
18613;DHT22;9436;52.152;21.032;2022-09-09T00:36:13;13.30;99.90
18613;DHT22;9436;52.152;21.032;2022-09-09T00:38:43;13.30;99.90
18613;DHT22;9436;52.152;21.032;2022-09-09T00:41:17;13.20;99.90
18613;DHT22;9436;52.152;21.032;2022-09-09T00:43:55;13.10;99.90
18613;DHT22;9436;52.152;21.032;2022-09-09T00:46:54;13.10;99.90
18613;DHT22;9436;52.152;21.032;2022-09-09T00:49:30;13.20;99.90
18613;DHT22;9436;52.152;21.032;2022-09-09T00:52:11;13.20;99.90
18613;DHT22;9436;52.152;21.032;2022-09-09T00:54:45;13.20;99.90
18613;DHT22;9436;52.152;21.032;2022-09-09T00:57:23;13.20;99.90
18613;DHT22;9436;52.152;21.032;2022-09-09T00:59:59;13.20;99.90
18613;DHT22;9436;52.152;21.032;2022-09-09T01:02:35;13.20;99.90
18613;DHT22;9436;52.152;21.032;2022-09-09T01:05:10;13.30;99.90
18613;DHT22;9436;52.152;21.032;2022-09-09T01:07:40;13.30;99.90
18613;DHT22;9436;52.152;21.032;2022-09-09T01:10:20;13.30;99.90
18613;DHT22;9436;52.152;21.032;2022-09-09T01:12:52;13.20;99.90
18613;DHT22;9436;52.152;21.032;2022-09-09T01:15:26;13.30;99.90
18613;DHT22;9436;52.152;21.032;2022-09-09T01:18:00;13.30;99.90
18613;DHT22;9436;52.152;21.032;2022-09-09T01:20:31;13.30;99.90
18613;DHT22;9436;52.152;21.032;2022-09-09T01:23:34;13.30;99.90
18613;DHT22;9436;52.152;21.032;2022-09-09T01:26:18;13.30;99.90
18613;DHT22;9436;52.152;21.032;2022-09-09T01:28:47;13.30;99.90
18613;DHT22;9436;52.152;21.032;2022-09-09T01:31:19;13.30;99.90
18613;DHT22;9436;52.152;21.032;2022-09-09T01:33:47;13.30;99.90
18613;DHT22;9436;52.152;21.032;2022-09-09T01:36:21;13.40;99.90
18613;DHT22;9436;52.152;21.032;2022-09-09T01:38:51;13.30;99.90
18613;DHT22;9436;52.152;21.032;2022-09-09T01:41:20;13.30;99.90
18613;DHT22;9436;52.152;21.032;2022-09-09T01:43:47;13.30;99.90
18613;DHT22;9436;52.152;21.032;2022-09-09T01:46:15;13.30;99.90
18613;DHT22;9436;52.152;21.032;2022-09-09T01:48:43;13.30;99.90
18613;DHT22;9436;52.152;21.032;2022-09-09T01:51:10;13.40;99.90
18613;DHT22;9436;52.152;21.032;2022-09-09T01:53:38;13.30;99.90
18613;DHT22;9436;52.152;21.032;2022-09-09T01:56:13;13.30;99.90
18613;DHT22;9436;52.152;21.032;2022-09-09T01:58:53;13.30;99.90
18613;DHT22;9436;52.152;21.032;2022-09-09T02:01:32;13.30;99.90
18613;DHT22;9436;52.152;21.032;2022-09-09T02:04:06;13.30;99.90
18613;DHT22;9436;52.152;21.032;2022-09-09T02:06:36;13.30;99.90
18613;DHT22;9436;52.152;21.032;2022-09-09T02:09:05;13.30;99.90
18613;DHT22;9436;52.152;21.032;2022-09-09T02:11:33;13.30;99.90
18613;DHT22;9436;52.152;21.032;2022-09-09T02:14:05;13.30;99.90
18613;DHT22;9436;52.152;21.032;2022-09-09T02:16:39;13.40;99.90
18613;DHT22;9436;52.152;21.032;2022-09-09T02:19:11;13.40;99.90
18613;DHT22;9436;52.152;21.032;2022-09-09T02:21:40;13.40;99.90
18613;DHT22;9436;52.152;21.032;2022-09-09T02:24:08;13.40;99.90
18613;DHT22;9436;52.152;21.032;2022-09-09T02:26:39;13.40;99.90
18613;DHT22;9436;52.152;21.032;2022-09-09T02:29:12;13.40;99.90
18613;DHT22;9436;52.152;21.032;2022-09-09T02:31:42;13.40;99.90
18613;DHT22;9436;52.152;21.032;2022-09-09T02:34:11;13.50;99.90
18613;DHT22;9436;52.152;21.032;2022-09-09T02:36:40;13.40;99.90
18613;DHT22;9436;52.152;21.032;2022-09-09T02:39:10;13.40;99.90
18613;DHT22;9436;52.152;21.032;2022-09-09T02:41:40;13.40;99.90
18613;DHT22;9436;52.152;21.032;2022-09-09T02:44:11;13.40;99.90
18613;DHT22;9436;52.152;21.032;2022-09-09T02:47:00;13.40;99.90
18613;DHT22;9436;52.152;21.032;2022-09-09T02:49:39;13.40;99.90
18613;DHT22;9436;52.152;21.032;2022-09-09T02:52:08;13.30;99.90
18613;DHT22;9436;52.152;21.032;2022-09-09T02:54:38;13.30;99.90
18613;DHT22;9436;52.152;21.032;2022-09-09T02:57:10;13.30;99.90
18613;DHT22;9436;52.152;21.032;2022-09-09T02:59:39;13.40;99.90
18613;DHT22;9436;52.152;21.032;2022-09-09T03:02:07;13.40;99.90
18613;DHT22;9436;52.152;21.032;2022-09-09T03:04:37;13.40;99.90
18613;DHT22;9436;52.152;21.032;2022-09-09T03:07:04;13.40;99.90
18613;DHT22;9436;52.152;21.032;2022-09-09T03:09:31;13.30;99.90
18613;DHT22;9436;52.152;21.032;2022-09-09T03:11:58;13.30;99.90
18613;DHT22;9436;52.152;21.032;2022-09-09T03:14:25;13.30;99.90
18613;DHT22;9436;52.152;21.032;2022-09-09T03:16:54;13.30;99.90
18613;DHT22;9436;52.152;21.032;2022-09-09T03:19:21;13.30;99.90
18613;DHT22;9436;52.152;21.032;2022-09-09T03:21:48;13.40;99.90
18613;DHT22;9436;52.152;21.032;2022-09-09T03:24:16;13.40;99.90
18613;DHT22;9436;52.152;21.032;2022-09-09T03:26:43;13.40;99.90
18613;DHT22;9436;52.152;21.032;2022-09-09T03:29:10;13.30;99.90
18613;DHT22;9436;52.152;21.032;2022-09-09T03:31:38;13.40;99.90
18613;DHT22;9436;52.152;21.032;2022-09-09T03:34:07;13.40;99.90
18613;DHT22;9436;52.152;21.032;2022-09-09T03:36:34;13.40;99.90
18613;DHT22;9436;52.152;21.032;2022-09-09T03:39:00;13.40;99.90
18613;DHT22;9436;52.152;21.032;2022-09-09T03:41:28;13.40;99.90
18613;DHT22;9436;52.152;21.032;2022-09-09T03:43:55;13.40;99.90
18613;DHT22;9436;52.152;21.032;2022-09-09T03:46:24;13.40;99.90
18613;DHT22;9436;52.152;21.032;2022-09-09T03:48:52;13.40;99.90
18613;DHT22;9436;52.152;21.032;2022-09-09T03:51:20;13.50;99.90
18613;DHT22;9436;52.152;21.032;2022-09-09T03:53:47;13.50;99.90
18613;DHT22;9436;52.152;21.032;2022-09-09T03:56:14;13.40;99.90
18613;DHT22;9436;52.152;21.032;2022-09-09T03:58:41;13.50;99.90
18613;DHT22;9436;52.152;21.032;2022-09-09T04:01:10;13.40;99.90
18613;DHT22;9436;52.152;21.032;2022-09-09T04:03:38;13.50;99.90
18613;DHT22;9436;52.152;21.032;2022-09-09T04:06:07;13.40;99.90
18613;DHT22;9436;52.152;21.032;2022-09-09T04:08:36;13.50;99.90
18613;DHT22;9436;52.152;21.032;2022-09-09T04:11:04;13.50;99.90
18613;DHT22;9436;52.152;21.032;2022-09-09T04:13:32;13.50;99.90
18613;DHT22;9436;52.152;21.032;2022-09-09T04:16:01;13.40;99.90
18613;DHT22;9436;52.152;21.032;2022-09-09T04:18:29;13.40;99.90
18613;DHT22;9436;52.152;21.032;2022-09-09T04:20:57;13.50;99.90
18613;DHT22;9436;52.152;21.032;2022-09-09T04:23:24;13.50;99.90
18613;DHT22;9436;52.152;21.032;2022-09-09T04:25:54;13.50;99.90
18613;DHT22;9436;52.152;21.032;2022-09-09T04:28:23;13.50;99.90
18613;DHT22;9436;52.152;21.032;2022-09-09T04:30:51;13.60;99.90
18613;DHT22;9436;52.152;21.032;2022-09-09T04:33:18;13.60;99.90
18613;DHT22;9436;52.152;21.032;2022-09-09T04:35:47;13.60;99.90
18613;DHT22;9436;52.152;21.032;2022-09-09T04:38:14;13.60;99.90
18613;DHT22;9436;52.152;21.032;2022-09-09T04:40:42;13.70;99.90
18613;DHT22;9436;52.152;21.032;2022-09-09T04:43:10;13.50;99.90
18613;DHT22;9436;52.152;21.032;2022-09-09T04:45:37;13.60;99.90
18613;DHT22;9436;52.152;21.032;2022-09-09T04:48:06;13.60;99.90
18613;DHT22;9436;52.152;21.032;2022-09-09T04:50:33;13.60;99.90
18613;DHT22;9436;52.152;21.032;2022-09-09T04:53:00;13.60;99.90
18613;DHT22;9436;52.152;21.032;2022-09-09T04:55:28;13.60;99.90
18613;DHT22;9436;52.152;21.032;2022-09-09T04:57:55;13.70;99.90
18613;DHT22;9436;52.152;21.032;2022-09-09T05:00:24;13.60;99.90
18613;DHT22;9436;52.152;21.032;2022-09-09T05:02:51;13.70;99.90
18613;DHT22;9436;52.152;21.032;2022-09-09T05:05:18;13.70;99.90
18613;DHT22;9436;52.152;21.032;2022-09-09T05:07:45;13.70;99.90
18613;DHT22;9436;52.152;21.032;2022-09-09T05:10:13;13.70;99.90
18613;DHT22;9436;52.152;21.032;2022-09-09T05:12:42;13.80;99.90
18613;DHT22;9436;52.152;21.032;2022-09-09T05:15:09;13.80;99.90
18613;DHT22;9436;52.152;21.032;2022-09-09T05:17:38;13.70;99.90
18613;DHT22;9436;52.152;21.032;2022-09-09T05:20:06;13.70;99.90
18613;DHT22;9436;52.152;21.032;2022-09-09T05:22:33;13.80;99.90
18613;DHT22;9436;52.152;21.032;2022-09-09T05:25:00;13.80;99.90
18613;DHT22;9436;52.152;21.032;2022-09-09T05:27:27;13.80;99.90
18613;DHT22;9436;52.152;21.032;2022-09-09T05:29:53;13.80;99.90
18613;DHT22;9436;52.152;21.032;2022-09-09T05:32:20;13.80;99.90
18613;DHT22;9436;52.152;21.032;2022-09-09T05:34:48;13.90;99.90
18613;DHT22;9436;52.152;21.032;2022-09-09T05:37:17;13.90;99.90
18613;DHT22;9436;52.152;21.032;2022-09-09T05:39:43;14.00;99.90
18613;DHT22;9436;52.152;21.032;2022-09-09T05:42:10;13.90;99.90
18613;DHT22;9436;52.152;21.032;2022-09-09T05:44:37;13.90;99.90
18613;DHT22;9436;52.152;21.032;2022-09-09T05:47:04;13.90;99.90
18613;DHT22;9436;52.152;21.032;2022-09-09T05:49:31;13.90;99.90
18613;DHT22;9436;52.152;21.032;2022-09-09T05:52:00;13.90;99.90
18613;DHT22;9436;52.152;21.032;2022-09-09T05:54:29;13.90;99.90
18613;DHT22;9436;52.152;21.032;2022-09-09T05:56:56;13.90;99.90
18613;DHT22;9436;52.152;21.032;2022-09-09T05:59:23;14.00;99.90
18613;DHT22;9436;52.152;21.032;2022-09-09T06:01:50;14.20;99.90
18613;DHT22;9436;52.152;21.032;2022-09-09T06:04:17;14.30;99.90
18613;DHT22;9436;52.152;21.032;2022-09-09T06:06:47;14.40;99.90
18613;DHT22;9436;52.152;21.032;2022-09-09T06:09:15;14.60;99.90
18613;DHT22;9436;52.152;21.032;2022-09-09T06:11:43;14.70;99.90
18613;DHT22;9436;52.152;21.032;2022-09-09T06:14:11;14.80;99.90
18613;DHT22;9436;52.152;21.032;2022-09-09T06:16:38;14.90;99.90
18613;DHT22;9436;52.152;21.032;2022-09-09T06:19:05;14.90;99.90
18613;DHT22;9436;52.152;21.032;2022-09-09T06:21:34;15.00;99.90
18613;DHT22;9436;52.152;21.032;2022-09-09T06:24:03;15.10;99.90
18613;DHT22;9436;52.152;21.032;2022-09-09T06:26:32;15.10;99.90
18613;DHT22;9436;52.152;21.032;2022-09-09T06:29:00;15.10;99.90
18613;DHT22;9436;52.152;21.032;2022-09-09T06:31:30;15.10;99.90
18613;DHT22;9436;52.152;21.032;2022-09-09T06:33:58;15.20;99.90
18613;DHT22;9436;52.152;21.032;2022-09-09T06:36:26;15.30;99.90
18613;DHT22;9436;52.152;21.032;2022-09-09T06:38:54;15.20;99.90
18613;DHT22;9436;52.152;21.032;2022-09-09T06:41:22;15.20;99.90
18613;DHT22;9436;52.152;21.032;2022-09-09T06:43:52;15.30;99.90
18613;DHT22;9436;52.152;21.032;2022-09-09T06:46:22;15.30;99.90
18613;DHT22;9436;52.152;21.032;2022-09-09T06:48:49;15.30;99.90
18613;DHT22;9436;52.152;21.032;2022-09-09T06:51:18;15.30;99.90
18613;DHT22;9436;52.152;21.032;2022-09-09T06:53:47;15.20;99.90
18613;DHT22;9436;52.152;21.032;2022-09-09T06:56:25;15.10;99.90
18613;DHT22;9436;52.152;21.032;2022-09-09T06:58:56;14.90;99.90
18613;DHT22;9436;52.152;21.032;2022-09-09T07:01:25;14.80;99.90
18613;DHT22;9436;52.152;21.032;2022-09-09T07:03:54;14.80;99.90
18613;DHT22;9436;52.152;21.032;2022-09-09T07:06:24;14.80;99.90
18613;DHT22;9436;52.152;21.032;2022-09-09T07:08:52;14.80;99.90
18613;DHT22;9436;52.152;21.032;2022-09-09T07:11:24;14.70;99.90
18613;DHT22;9436;52.152;21.032;2022-09-09T07:13:54;14.70;99.90
18613;DHT22;9436;52.152;21.032;2022-09-09T07:16:22;14.60;99.90
18613;DHT22;9436;52.152;21.032;2022-09-09T07:18:50;14.50;99.90
18613;DHT22;9436;52.152;21.032;2022-09-09T07:21:18;14.50;99.90
18613;DHT22;9436;52.152;21.032;2022-09-09T07:23:47;14.50;99.90
18613;DHT22;9436;52.152;21.032;2022-09-09T07:26:17;14.50;99.90
18613;DHT22;9436;52.152;21.032;2022-09-09T07:28:44;14.40;99.90
18613;DHT22;9436;52.152;21.032;2022-09-09T07:31:15;14.50;99.90
18613;DHT22;9436;52.152;21.032;2022-09-09T07:33:43;14.50;99.90
18613;DHT22;9436;52.152;21.032;2022-09-09T07:36:13;14.50;99.90
18613;DHT22;9436;52.152;21.032;2022-09-09T07:38:41;14.50;99.90
18613;DHT22;9436;52.152;21.032;2022-09-09T07:41:10;14.50;99.90
18613;DHT22;9436;52.152;21.032;2022-09-09T07:43:38;14.50;99.90
18613;DHT22;9436;52.152;21.032;2022-09-09T07:46:06;14.40;99.90
18613;DHT22;9436;52.152;21.032;2022-09-09T07:48:34;14.40;99.90
18613;DHT22;9436;52.152;21.032;2022-09-09T07:51:09;14.50;99.90
18613;DHT22;9436;52.152;21.032;2022-09-09T07:53:37;14.50;99.90
18613;DHT22;9436;52.152;21.032;2022-09-09T07:56:07;14.50;99.90
18613;DHT22;9436;52.152;21.032;2022-09-09T07:58:35;14.50;99.90
18613;DHT22;9436;52.152;21.032;2022-09-09T08:01:07;14.60;99.90
18613;DHT22;9436;52.152;21.032;2022-09-09T08:03:37;14.70;99.90
18613;DHT22;9436;52.152;21.032;2022-09-09T08:06:05;14.60;99.90
18613;DHT22;9436;52.152;21.032;2022-09-09T08:08:33;14.50;99.90
18613;DHT22;9436;52.152;21.032;2022-09-09T08:11:02;14.40;99.90
18613;DHT22;9436;52.152;21.032;2022-09-09T08:13:30;14.40;99.90
18613;DHT22;9436;52.152;21.032;2022-09-09T08:16:07;14.40;99.90
18613;DHT22;9436;52.152;21.032;2022-09-09T08:18:36;14.40;99.90
18613;DHT22;9436;52.152;21.032;2022-09-09T08:21:11;14.50;99.90
18613;DHT22;9436;52.152;21.032;2022-09-09T08:23:39;14.70;99.90
18613;DHT22;9436;52.152;21.032;2022-09-09T08:26:09;14.70;99.90
18613;DHT22;9436;52.152;21.032;2022-09-09T08:28:37;14.70;99.90
18613;DHT22;9436;52.152;21.032;2022-09-09T08:31:06;14.70;99.90
18613;DHT22;9436;52.152;21.032;2022-09-09T08:33:33;14.60;99.90
18613;DHT22;9436;52.152;21.032;2022-09-09T08:36:03;14.70;99.90
18613;DHT22;9436;52.152;21.032;2022-09-09T08:38:30;14.70;99.90
18613;DHT22;9436;52.152;21.032;2022-09-09T08:41:07;14.80;99.90
18613;DHT22;9436;52.152;21.032;2022-09-09T08:43:37;14.80;99.90
18613;DHT22;9436;52.152;21.032;2022-09-09T08:46:11;14.80;99.90
18613;DHT22;9436;52.152;21.032;2022-09-09T08:48:47;14.90;99.90
18613;DHT22;9436;52.152;21.032;2022-09-09T08:51:19;14.90;99.90
18613;DHT22;9436;52.152;21.032;2022-09-09T08:53:48;14.90;99.90
18613;DHT22;9436;52.152;21.032;2022-09-09T08:56:18;14.90;99.90
18613;DHT22;9436;52.152;21.032;2022-09-09T08:58:49;14.90;99.90
18613;DHT22;9436;52.152;21.032;2022-09-09T09:01:25;14.80;99.90
18613;DHT22;9436;52.152;21.032;2022-09-09T09:04:00;14.90;99.90
18613;DHT22;9436;52.152;21.032;2022-09-09T09:06:44;14.90;99.90
18613;DHT22;9436;52.152;21.032;2022-09-09T09:09:18;14.90;99.90
18613;DHT22;9436;52.152;21.032;2022-09-09T09:11:51;15.10;99.90
18613;DHT22;9436;52.152;21.032;2022-09-09T09:14:21;15.30;99.90
18613;DHT22;9436;52.152;21.032;2022-09-09T09:16:53;15.40;99.90
18613;DHT22;9436;52.152;21.032;2022-09-09T09:19:20;15.60;99.90
18613;DHT22;9436;52.152;21.032;2022-09-09T09:21:54;15.90;99.90
18613;DHT22;9436;52.152;21.032;2022-09-09T09:24:29;16.00;99.90
18613;DHT22;9436;52.152;21.032;2022-09-09T09:27:04;16.00;99.90
18613;DHT22;9436;52.152;21.032;2022-09-09T09:29:34;15.90;99.90
18613;DHT22;9436;52.152;21.032;2022-09-09T09:32:03;15.90;99.90
18613;DHT22;9436;52.152;21.032;2022-09-09T09:34:30;15.80;99.90
18613;DHT22;9436;52.152;21.032;2022-09-09T09:36:59;15.70;99.90
18613;DHT22;9436;52.152;21.032;2022-09-09T09:39:29;15.70;99.90
18613;DHT22;9436;52.152;21.032;2022-09-09T09:41:56;15.80;99.90
18613;DHT22;9436;52.152;21.032;2022-09-09T09:44:32;15.80;99.90
18613;DHT22;9436;52.152;21.032;2022-09-09T09:47:10;15.70;99.90
18613;DHT22;9436;52.152;21.032;2022-09-09T09:49:38;15.60;99.90
18613;DHT22;9436;52.152;21.032;2022-09-09T09:52:12;15.70;99.90
18613;DHT22;9436;52.152;21.032;2022-09-09T09:54:43;15.70;99.90
18613;DHT22;9436;52.152;21.032;2022-09-09T09:57:11;15.70;99.90
18613;DHT22;9436;52.152;21.032;2022-09-09T09:59:39;15.60;99.90
18613;DHT22;9436;52.152;21.032;2022-09-09T10:02:18;15.70;99.90
18613;DHT22;9436;52.152;21.032;2022-09-09T10:04:45;15.50;99.90
18613;DHT22;9436;52.152;21.032;2022-09-09T10:07:18;15.50;99.90
18613;DHT22;9436;52.152;21.032;2022-09-09T10:09:48;15.60;99.90
18613;DHT22;9436;52.152;21.032;2022-09-09T10:12:25;15.60;99.90
18613;DHT22;9436;52.152;21.032;2022-09-09T10:14:59;15.60;99.90
18613;DHT22;9436;52.152;21.032;2022-09-09T10:17:35;15.60;99.90
18613;DHT22;9436;52.152;21.032;2022-09-09T10:20:18;15.50;99.90
18613;DHT22;9436;52.152;21.032;2022-09-09T10:22:51;15.50;99.90
18613;DHT22;9436;52.152;21.032;2022-09-09T10:25:30;15.60;99.90
18613;DHT22;9436;52.152;21.032;2022-09-09T10:28:25;15.50;99.90
18613;DHT22;9436;52.152;21.032;2022-09-09T10:31:06;15.50;99.90
18613;DHT22;9436;52.152;21.032;2022-09-09T10:33:47;15.50;99.90
18613;DHT22;9436;52.152;21.032;2022-09-09T10:36:18;15.60;99.90
18613;DHT22;9436;52.152;21.032;2022-09-09T10:38:49;15.70;99.90
18613;DHT22;9436;52.152;21.032;2022-09-09T10:41:22;15.80;99.90
18613;DHT22;9436;52.152;21.032;2022-09-09T10:44:17;15.90;99.90
18613;DHT22;9436;52.152;21.032;2022-09-09T10:46:57;15.80;99.90
18613;DHT22;9436;52.152;21.032;2022-09-09T10:49:40;15.80;99.90
18613;DHT22;9436;52.152;21.032;2022-09-09T10:52:15;15.80;99.90
18613;DHT22;9436;52.152;21.032;2022-09-09T10:54:55;15.90;99.90
18613;DHT22;9436;52.152;21.032;2022-09-09T10:57:28;16.00;99.90
18613;DHT22;9436;52.152;21.032;2022-09-09T10:59:58;16.00;99.90
18613;DHT22;9436;52.152;21.032;2022-09-09T11:02:30;15.90;99.90
18613;DHT22;9436;52.152;21.032;2022-09-09T11:05:00;15.90;99.90
18613;DHT22;9436;52.152;21.032;2022-09-09T11:07:33;15.80;99.90
18613;DHT22;9436;52.152;21.032;2022-09-09T11:10:11;15.80;99.90
18613;DHT22;9436;52.152;21.032;2022-09-09T11:12:43;15.80;99.90
18613;DHT22;9436;52.152;21.032;2022-09-09T11:15:17;15.80;99.90
18613;DHT22;9436;52.152;21.032;2022-09-09T11:17:48;15.80;99.90
18613;DHT22;9436;52.152;21.032;2022-09-09T11:20:16;15.80;99.90
18613;DHT22;9436;52.152;21.032;2022-09-09T11:22:48;15.90;99.90
18613;DHT22;9436;52.152;21.032;2022-09-09T11:25:22;15.80;99.90
18613;DHT22;9436;52.152;21.032;2022-09-09T11:28:10;15.80;99.90
18613;DHT22;9436;52.152;21.032;2022-09-09T11:30:47;15.90;99.90
18613;DHT22;9436;52.152;21.032;2022-09-09T11:33:36;15.80;99.90
18613;DHT22;9436;52.152;21.032;2022-09-09T11:36:24;15.80;99.90
18613;DHT22;9436;52.152;21.032;2022-09-09T11:38:56;15.70;99.90
18613;DHT22;9436;52.152;21.032;2022-09-09T11:41:35;15.80;99.90
18613;DHT22;9436;52.152;21.032;2022-09-09T11:44:10;15.90;99.90
18613;DHT22;9436;52.152;21.032;2022-09-09T11:46:38;15.80;99.90
18613;DHT22;9436;52.152;21.032;2022-09-09T11:49:26;15.90;99.90
18613;DHT22;9436;52.152;21.032;2022-09-09T11:51:53;16.00;99.90
18613;DHT22;9436;52.152;21.032;2022-09-09T11:54:29;15.90;99.90
18613;DHT22;9436;52.152;21.032;2022-09-09T11:56:58;15.90;99.90
18613;DHT22;9436;52.152;21.032;2022-09-09T11:59:26;16.00;99.90
18613;DHT22;9436;52.152;21.032;2022-09-09T12:01:56;16.00;99.90
18613;DHT22;9436;52.152;21.032;2022-09-09T12:04:35;16.00;99.90
18613;DHT22;9436;52.152;21.032;2022-09-09T12:07:23;16.00;99.90
18613;DHT22;9436;52.152;21.032;2022-09-09T12:09:54;16.00;99.90
18613;DHT22;9436;52.152;21.032;2022-09-09T12:12:30;15.90;99.90
18613;DHT22;9436;52.152;21.032;2022-09-09T12:15:00;15.90;99.90
18613;DHT22;9436;52.152;21.032;2022-09-09T12:17:29;15.90;99.90
18613;DHT22;9436;52.152;21.032;2022-09-09T12:20:03;15.90;99.90
18613;DHT22;9436;52.152;21.032;2022-09-09T12:22:37;15.80;99.90
18613;DHT22;9436;52.152;21.032;2022-09-09T12:25:16;15.80;99.90
18613;DHT22;9436;52.152;21.032;2022-09-09T12:27:55;15.80;99.90
18613;DHT22;9436;52.152;21.032;2022-09-09T12:30:29;15.70;99.90
18613;DHT22;9436;52.152;21.032;2022-09-09T12:33:01;15.80;99.90
18613;DHT22;9436;52.152;21.032;2022-09-09T12:35:28;15.80;99.90
18613;DHT22;9436;52.152;21.032;2022-09-09T12:37:59;15.80;99.90
18613;DHT22;9436;52.152;21.032;2022-09-09T12:40:28;15.90;99.90
18613;DHT22;9436;52.152;21.032;2022-09-09T12:42:56;15.90;99.90
18613;DHT22;9436;52.152;21.032;2022-09-09T12:45:25;16.00;99.90
18613;DHT22;9436;52.152;21.032;2022-09-09T12:47:56;16.10;99.90
18613;DHT22;9436;52.152;21.032;2022-09-09T12:50:24;16.10;99.90
18613;DHT22;9436;52.152;21.032;2022-09-09T12:52:55;16.10;99.90
18613;DHT22;9436;52.152;21.032;2022-09-09T12:55:27;16.20;99.90
18613;DHT22;9436;52.152;21.032;2022-09-09T12:57:57;16.20;99.90
18613;DHT22;9436;52.152;21.032;2022-09-09T13:00:26;16.30;99.90
18613;DHT22;9436;52.152;21.032;2022-09-09T13:02:55;16.30;99.90
18613;DHT22;9436;52.152;21.032;2022-09-09T13:05:24;16.40;99.90
18613;DHT22;9436;52.152;21.032;2022-09-09T13:07:52;16.40;99.90
18613;DHT22;9436;52.152;21.032;2022-09-09T13:10:29;16.40;99.90
18613;DHT22;9436;52.152;21.032;2022-09-09T13:12:58;16.40;99.90
18613;DHT22;9436;52.152;21.032;2022-09-09T13:15:27;16.30;99.90
18613;DHT22;9436;52.152;21.032;2022-09-09T13:17:56;16.40;99.90
18613;DHT22;9436;52.152;21.032;2022-09-09T13:20:25;16.30;99.90
18613;DHT22;9436;52.152;21.032;2022-09-09T13:22:53;16.40;99.90
18613;DHT22;9436;52.152;21.032;2022-09-09T13:25:23;16.50;99.90
18613;DHT22;9436;52.152;21.032;2022-09-09T13:27:58;16.50;99.90
18613;DHT22;9436;52.152;21.032;2022-09-09T13:30:27;16.50;99.90
18613;DHT22;9436;52.152;21.032;2022-09-09T13:33:03;16.60;99.90
18613;DHT22;9436;52.152;21.032;2022-09-09T13:35:32;16.60;99.90
18613;DHT22;9436;52.152;21.032;2022-09-09T13:38:06;16.60;99.90
18613;DHT22;9436;52.152;21.032;2022-09-09T13:40:34;16.60;99.90
18613;DHT22;9436;52.152;21.032;2022-09-09T13:43:03;16.70;99.90
18613;DHT22;9436;52.152;21.032;2022-09-09T13:45:31;16.70;99.90
18613;DHT22;9436;52.152;21.032;2022-09-09T13:48:09;16.70;99.90
18613;DHT22;9436;52.152;21.032;2022-09-09T13:50:36;16.60;99.90
18613;DHT22;9436;52.152;21.032;2022-09-09T13:53:03;16.70;99.90
18613;DHT22;9436;52.152;21.032;2022-09-09T13:55:30;16.80;99.90
18613;DHT22;9436;52.152;21.032;2022-09-09T13:57:59;16.80;99.90
18613;DHT22;9436;52.152;21.032;2022-09-09T14:00:29;16.80;99.90
18613;DHT22;9436;52.152;21.032;2022-09-09T14:02:56;16.70;99.90
18613;DHT22;9436;52.152;21.032;2022-09-09T14:05:23;16.50;99.90
18613;DHT22;9436;52.152;21.032;2022-09-09T14:07:50;16.40;99.90
18613;DHT22;9436;52.152;21.032;2022-09-09T14:10:17;16.30;99.90
18613;DHT22;9436;52.152;21.032;2022-09-09T14:12:44;16.40;99.90
18613;DHT22;9436;52.152;21.032;2022-09-09T14:15:12;16.50;99.90
18613;DHT22;9436;52.152;21.032;2022-09-09T14:17:41;16.60;99.90
18613;DHT22;9436;52.152;21.032;2022-09-09T14:20:09;16.60;99.90
18613;DHT22;9436;52.152;21.032;2022-09-09T14:22:37;16.60;99.90
18613;DHT22;9436;52.152;21.032;2022-09-09T14:25:07;16.70;99.90
18613;DHT22;9436;52.152;21.032;2022-09-09T14:27:34;16.70;99.90
18613;DHT22;9436;52.152;21.032;2022-09-09T14:30:01;16.70;99.90
18613;DHT22;9436;52.152;21.032;2022-09-09T14:32:28;16.70;99.90
18613;DHT22;9436;52.152;21.032;2022-09-09T14:34:56;16.70;99.90
18613;DHT22;9436;52.152;21.032;2022-09-09T14:37:23;16.70;99.90
18613;DHT22;9436;52.152;21.032;2022-09-09T14:39:51;16.60;99.90
18613;DHT22;9436;52.152;21.032;2022-09-09T14:42:19;16.60;99.90
18613;DHT22;9436;52.152;21.032;2022-09-09T14:44:46;16.60;99.90
18613;DHT22;9436;52.152;21.032;2022-09-09T14:47:14;16.70;99.90
18613;DHT22;9436;52.152;21.032;2022-09-09T14:49:41;16.70;99.90
18613;DHT22;9436;52.152;21.032;2022-09-09T14:52:10;16.70;99.90
18613;DHT22;9436;52.152;21.032;2022-09-09T14:54:36;16.60;99.90
18613;DHT22;9436;52.152;21.032;2022-09-09T14:57:03;16.70;99.90
18613;DHT22;9436;52.152;21.032;2022-09-09T14:59:30;16.70;99.90
18613;DHT22;9436;52.152;21.032;2022-09-09T15:01:57;16.60;99.90
18613;DHT22;9436;52.152;21.032;2022-09-09T15:04:26;16.40;99.90
18613;DHT22;9436;52.152;21.032;2022-09-09T15:06:53;16.40;99.90
18613;DHT22;9436;52.152;21.032;2022-09-09T15:09:21;16.50;99.90
18613;DHT22;9436;52.152;21.032;2022-09-09T15:11:48;16.40;99.90
18613;DHT22;9436;52.152;21.032;2022-09-09T15:14:16;16.30;99.90
18613;DHT22;9436;52.152;21.032;2022-09-09T15:16:43;16.20;99.90
18613;DHT22;9436;52.152;21.032;2022-09-09T15:19:10;16.10;99.90
18613;DHT22;9436;52.152;21.032;2022-09-09T15:21:37;16.10;99.90
18613;DHT22;9436;52.152;21.032;2022-09-09T15:24:05;16.10;99.90
18613;DHT22;9436;52.152;21.032;2022-09-09T15:26:35;16.10;99.90
18613;DHT22;9436;52.152;21.032;2022-09-09T15:29:04;16.10;99.90
18613;DHT22;9436;52.152;21.032;2022-09-09T15:31:31;16.10;99.90
18613;DHT22;9436;52.152;21.032;2022-09-09T15:34:00;16.10;99.90
18613;DHT22;9436;52.152;21.032;2022-09-09T15:36:28;16.10;99.90
18613;DHT22;9436;52.152;21.032;2022-09-09T15:38:57;16.20;99.90
18613;DHT22;9436;52.152;21.032;2022-09-09T15:41:25;16.00;99.90
18613;DHT22;9436;52.152;21.032;2022-09-09T15:43:54;16.00;99.90
18613;DHT22;9436;52.152;21.032;2022-09-09T15:46:26;16.10;99.90
18613;DHT22;9436;52.152;21.032;2022-09-09T15:48:55;16.10;99.90
18613;DHT22;9436;52.152;21.032;2022-09-09T15:51:23;16.10;99.90